sensor_id;sensor_type;location;lat;lon;timestamp;temperature;humidity
52765;DHT22;38650;44.536;18.664;2023-04-01T00:00:50;17.00;54.10
52765;DHT22;38650;44.536;18.664;2023-04-01T00:03:17;17.10;53.70
52765;DHT22;38650;44.536;18.664;2023-04-01T00:05:43;17.30;53.60
52765;DHT22;38650;44.536;18.664;2023-04-01T00:08:10;17.30;54.10
52765;DHT22;38650;44.536;18.664;2023-04-01T00:10:36;17.30;54.80
52765;DHT22;38650;44.536;18.664;2023-04-01T00:13:02;17.30;55.10
52765;DHT22;38650;44.536;18.664;2023-04-01T00:15:28;17.20;54.90
52765;DHT22;38650;44.536;18.664;2023-04-01T00:17:54;17.30;55.40
52765;DHT22;38650;44.536;18.664;2023-04-01T00:20:20;17.20;54.60
52765;DHT22;38650;44.536;18.664;2023-04-01T00:22:46;17.20;54.80
52765;DHT22;38650;44.536;18.664;2023-04-01T00:25:12;17.10;56.10
52765;DHT22;38650;44.536;18.664;2023-04-01T00:27:38;17.00;57.10
52765;DHT22;38650;44.536;18.664;2023-04-01T00:30:04;17.00;57.30
52765;DHT22;38650;44.536;18.664;2023-04-01T00:32:30;17.10;57.10
52765;DHT22;38650;44.536;18.664;2023-04-01T00:34:56;17.20;57.30
52765;DHT22;38650;44.536;18.664;2023-04-01T00:37:24;17.20;57.60
52765;DHT22;38650;44.536;18.664;2023-04-01T00:39:50;17.30;58.00
52765;DHT22;38650;44.536;18.664;2023-04-01T00:42:16;17.20;58.40
52765;DHT22;38650;44.536;18.664;2023-04-01T00:44:42;17.10;58.90
52765;DHT22;38650;44.536;18.664;2023-04-01T00:47:08;17.10;58.90
52765;DHT22;38650;44.536;18.664;2023-04-01T00:49:39;17.20;60.20
52765;DHT22;38650;44.536;18.664;2023-04-01T00:52:08;17.10;60.20
52765;DHT22;38650;44.536;18.664;2023-04-01T00:54:36;17.10;59.80
52765;DHT22;38650;44.536;18.664;2023-04-01T00:57:12;17.20;60.30
52765;DHT22;38650;44.536;18.664;2023-04-01T00:59:44;17.20;60.50
52765;DHT22;38650;44.536;18.664;2023-04-01T01:02:12;17.20;60.90
52765;DHT22;38650;44.536;18.664;2023-04-01T01:04:38;17.20;61.30
52765;DHT22;38650;44.536;18.664;2023-04-01T01:07:34;17.10;62.20
52765;DHT22;38650;44.536;18.664;2023-04-01T01:15:46;16.90;68.30
52765;DHT22;38650;44.536;18.664;2023-04-01T01:21:25;16.90;70.40
52765;DHT22;38650;44.536;18.664;2023-04-01T01:37:14;16.20;73.00
52765;DHT22;38650;44.536;18.664;2023-04-01T01:39:42;16.10;76.20
52765;DHT22;38650;44.536;18.664;2023-04-01T01:42:11;15.90;80.00
52765;DHT22;38650;44.536;18.664;2023-04-01T01:44:39;15.90;82.80
52765;DHT22;38650;44.536;18.664;2023-04-01T01:47:07;15.90;82.60
52765;DHT22;38650;44.536;18.664;2023-04-01T01:49:35;15.90;84.60
52765;DHT22;38650;44.536;18.664;2023-04-01T01:52:01;15.90;88.40
52765;DHT22;38650;44.536;18.664;2023-04-01T01:54:27;15.80;89.30
52765;DHT22;38650;44.536;18.664;2023-04-01T01:57:06;15.80;90.40
52765;DHT22;38650;44.536;18.664;2023-04-01T01:59:36;15.90;90.50
52765;DHT22;38650;44.536;18.664;2023-04-01T02:02:03;16.00;91.30
52765;DHT22;38650;44.536;18.664;2023-04-01T02:04:35;15.90;93.60
52765;DHT22;38650;44.536;18.664;2023-04-01T02:07:06;15.60;96.00
52765;DHT22;38650;44.536;18.664;2023-04-01T02:09:32;15.30;99.40
52765;DHT22;38650;44.536;18.664;2023-04-01T02:12:05;15.30;99.90
52765;DHT22;38650;44.536;18.664;2023-04-01T02:14:39;15.30;99.90
52765;DHT22;38650;44.536;18.664;2023-04-01T02:17:07;15.20;99.90
52765;DHT22;38650;44.536;18.664;2023-04-01T02:19:41;15.10;99.90
52765;DHT22;38650;44.536;18.664;2023-04-01T02:22:12;15.00;99.90
52765;DHT22;38650;44.536;18.664;2023-04-01T02:24:41;14.90;99.90
52765;DHT22;38650;44.536;18.664;2023-04-01T02:27:09;14.70;99.90
52765;DHT22;38650;44.536;18.664;2023-04-01T02:29:36;14.70;99.90
52765;DHT22;38650;44.536;18.664;2023-04-01T02:32:02;14.70;99.90
52765;DHT22;38650;44.536;18.664;2023-04-01T02:34:28;14.70;99.90
52765;DHT22;38650;44.536;18.664;2023-04-01T02:36:55;14.70;99.90
52765;DHT22;38650;44.536;18.664;2023-04-01T02:39:22;14.80;99.90
52765;DHT22;38650;44.536;18.664;2023-04-01T02:41:48;15.00;99.90
52765;DHT22;38650;44.536;18.664;2023-04-01T02:44:15;14.70;99.90
52765;DHT22;38650;44.536;18.664;2023-04-01T02:46:41;14.50;99.90
52765;DHT22;38650;44.536;18.664;2023-04-01T02:49:07;14.30;99.90
52765;DHT22;38650;44.536;18.664;2023-04-01T02:51:33;14.20;99.90
52765;DHT22;38650;44.536;18.664;2023-04-01T02:53:59;14.10;99.90
52765;DHT22;38650;44.536;18.664;2023-04-01T02:56:25;14.00;99.90
52765;DHT22;38650;44.536;18.664;2023-04-01T02:58:52;13.90;99.90
52765;DHT22;38650;44.536;18.664;2023-04-01T03:01:18;13.80;99.90
52765;DHT22;38650;44.536;18.664;2023-04-01T03:03:44;13.90;99.90
52765;DHT22;38650;44.536;18.664;2023-04-01T03:06:12;14.10;99.90
52765;DHT22;38650;44.536;18.664;2023-04-01T03:08:38;14.00;99.90
52765;DHT22;38650;44.536;18.664;2023-04-01T03:11:04;13.90;99.90
52765;DHT22;38650;44.536;18.664;2023-04-01T03:13:30;14.00;99.90
52765;DHT22;38650;44.536;18.664;2023-04-01T03:15:56;14.20;99.90
52765;DHT22;38650;44.536;18.664;2023-04-01T03:18:22;14.20;99.90
52765;DHT22;38650;44.536;18.664;2023-04-01T03:20:47;14.20;99.90
52765;DHT22;38650;44.536;18.664;2023-04-01T03:23:14;14.20;99.90
52765;DHT22;38650;44.536;18.664;2023-04-01T03:25:41;14.00;99.90
52765;DHT22;38650;44.536;18.664;2023-04-01T03:28:07;13.80;99.90
52765;DHT22;38650;44.536;18.664;2023-04-01T03:30:33;13.90;99.90
52765;DHT22;38650;44.536;18.664;2023-04-01T03:32:59;14.00;99.90
52765;DHT22;38650;44.536;18.664;2023-04-01T03:35:26;13.90;99.90
52765;DHT22;38650;44.536;18.664;2023-04-01T03:37:53;13.80;99.90
52765;DHT22;38650;44.536;18.664;2023-04-01T03:40:19;13.90;99.90
52765;DHT22;38650;44.536;18.664;2023-04-01T03:42:45;14.00;99.90
52765;DHT22;38650;44.536;18.664;2023-04-01T03:45:11;14.10;99.90
52765;DHT22;38650;44.536;18.664;2023-04-01T03:47:40;14.20;99.90
52765;DHT22;38650;44.536;18.664;2023-04-01T03:50:07;14.20;99.90
52765;DHT22;38650;44.536;18.664;2023-04-01T03:52:34;14.20;99.90
52765;DHT22;38650;44.536;18.664;2023-04-01T03:55:01;14.20;99.90
52765;DHT22;38650;44.536;18.664;2023-04-01T03:57:27;14.30;99.90
52765;DHT22;38650;44.536;18.664;2023-04-01T03:59:52;14.30;99.90
52765;DHT22;38650;44.536;18.664;2023-04-01T04:02:18;14.10;99.90
52765;DHT22;38650;44.536;18.664;2023-04-01T04:04:44;14.10;99.90
52765;DHT22;38650;44.536;18.664;2023-04-01T04:07:11;14.20;99.90
52765;DHT22;38650;44.536;18.664;2023-04-01T04:09:37;14.30;99.90
52765;DHT22;38650;44.536;18.664;2023-04-01T04:12:03;14.30;99.90
52765;DHT22;38650;44.536;18.664;2023-04-01T04:14:30;14.10;99.90
52765;DHT22;38650;44.536;18.664;2023-04-01T04:16:56;13.70;99.90
52765;DHT22;38650;44.536;18.664;2023-04-01T04:19:22;13.50;99.90
52765;DHT22;38650;44.536;18.664;2023-04-01T04:21:47;13.40;99.90
52765;DHT22;38650;44.536;18.664;2023-04-01T04:24:13;13.40;99.90
52765;DHT22;38650;44.536;18.664;2023-04-01T04:26:39;13.50;99.90
52765;DHT22;38650;44.536;18.664;2023-04-01T04:29:04;13.50;99.90
52765;DHT22;38650;44.536;18.664;2023-04-01T04:31:30;13.50;99.90
52765;DHT22;38650;44.536;18.664;2023-04-01T04:33:56;13.30;99.90
52765;DHT22;38650;44.536;18.664;2023-04-01T04:36:21;13.30;99.90
52765;DHT22;38650;44.536;18.664;2023-04-01T04:38:48;13.30;99.90
52765;DHT22;38650;44.536;18.664;2023-04-01T04:41:15;13.40;99.90
52765;DHT22;38650;44.536;18.664;2023-04-01T04:43:52;13.50;99.90
52765;DHT22;38650;44.536;18.664;2023-04-01T04:46:18;13.80;99.90
52765;DHT22;38650;44.536;18.664;2023-04-01T04:48:45;13.90;99.90
52765;DHT22;38650;44.536;18.664;2023-04-01T04:51:18;14.00;99.90
52765;DHT22;38650;44.536;18.664;2023-04-01T04:53:45;14.00;99.90
52765;DHT22;38650;44.536;18.664;2023-04-01T04:56:11;14.00;99.90
52765;DHT22;38650;44.536;18.664;2023-04-01T04:58:37;14.00;99.90
52765;DHT22;38650;44.536;18.664;2023-04-01T05:01:12;14.00;99.90
52765;DHT22;38650;44.536;18.664;2023-04-01T05:03:38;14.00;99.90
52765;DHT22;38650;44.536;18.664;2023-04-01T05:06:04;14.00;99.90
52765;DHT22;38650;44.536;18.664;2023-04-01T05:08:30;13.90;99.90
52765;DHT22;38650;44.536;18.664;2023-04-01T05:10:58;13.80;99.90
52765;DHT22;38650;44.536;18.664;2023-04-01T05:13:24;13.80;99.90
52765;DHT22;38650;44.536;18.664;2023-04-01T05:15:50;13.90;99.90
52765;DHT22;38650;44.536;18.664;2023-04-01T05:18:16;13.90;99.90
52765;DHT22;38650;44.536;18.664;2023-04-01T05:20:53;14.00;99.90
52765;DHT22;38650;44.536;18.664;2023-04-01T05:23:21;14.20;99.90
52765;DHT22;38650;44.536;18.664;2023-04-01T05:25:50;14.30;99.90
52765;DHT22;38650;44.536;18.664;2023-04-01T05:28:18;14.30;99.90
52765;DHT22;38650;44.536;18.664;2023-04-01T05:30:44;14.30;99.90
52765;DHT22;38650;44.536;18.664;2023-04-01T05:33:11;13.90;99.90
52765;DHT22;38650;44.536;18.664;2023-04-01T05:35:37;13.60;99.90
52765;DHT22;38650;44.536;18.664;2023-04-01T05:38:03;13.20;99.90
52765;DHT22;38650;44.536;18.664;2023-04-01T05:40:30;13.00;99.90
52765;DHT22;38650;44.536;18.664;2023-04-01T05:42:56;13.00;99.90
52765;DHT22;38650;44.536;18.664;2023-04-01T05:45:22;13.20;99.90
52765;DHT22;38650;44.536;18.664;2023-04-01T05:47:47;13.20;99.90
52765;DHT22;38650;44.536;18.664;2023-04-01T05:50:13;13.30;99.90
52765;DHT22;38650;44.536;18.664;2023-04-01T05:52:39;13.40;99.90
52765;DHT22;38650;44.536;18.664;2023-04-01T05:55:05;13.60;99.90
52765;DHT22;38650;44.536;18.664;2023-04-01T05:57:31;13.60;99.90
52765;DHT22;38650;44.536;18.664;2023-04-01T05:59:57;13.60;99.90
52765;DHT22;38650;44.536;18.664;2023-04-01T06:02:23;13.50;99.90
52765;DHT22;38650;44.536;18.664;2023-04-01T06:04:49;13.60;99.90
52765;DHT22;38650;44.536;18.664;2023-04-01T06:07:20;13.50;99.90
52765;DHT22;38650;44.536;18.664;2023-04-01T06:09:46;13.50;99.90
52765;DHT22;38650;44.536;18.664;2023-04-01T06:17:51;13.70;99.90
52765;DHT22;38650;44.536;18.664;2023-04-01T06:20:36;13.70;99.90
52765;DHT22;38650;44.536;18.664;2023-04-01T06:23:24;13.80;99.90
52765;DHT22;38650;44.536;18.664;2023-04-01T06:35:02;14.10;99.90
52765;DHT22;38650;44.536;18.664;2023-04-01T06:49:36;13.60;99.90
52765;DHT22;38650;44.536;18.664;2023-04-01T06:55:23;13.50;99.90
52765;DHT22;38650;44.536;18.664;2023-04-01T06:57:55;13.60;99.90
52765;DHT22;38650;44.536;18.664;2023-04-01T07:00:26;13.70;99.90
52765;DHT22;38650;44.536;18.664;2023-04-01T07:05:31;13.80;99.90
52765;DHT22;38650;44.536;18.664;2023-04-01T07:08:01;13.70;99.90
52765;DHT22;38650;44.536;18.664;2023-04-01T07:13:06;13.50;99.90
52765;DHT22;38650;44.536;18.664;2023-04-01T07:15:38;13.50;99.90
52765;DHT22;38650;44.536;18.664;2023-04-01T07:18:16;13.50;99.90
52765;DHT22;38650;44.536;18.664;2023-04-01T07:20:43;13.30;99.90
52765;DHT22;38650;44.536;18.664;2023-04-01T07:23:38;13.20;99.90
52765;DHT22;38650;44.536;18.664;2023-04-01T07:26:24;13.30;99.90
52765;DHT22;38650;44.536;18.664;2023-04-01T07:28:53;13.40;99.90
52765;DHT22;38650;44.536;18.664;2023-04-01T07:34:12;13.50;99.90
52765;DHT22;38650;44.536;18.664;2023-04-01T07:47:03;12.70;99.90
52765;DHT22;38650;44.536;18.664;2023-04-01T07:52:04;12.70;99.90
52765;DHT22;38650;44.536;18.664;2023-04-01T08:05:53;12.70;99.90
52765;DHT22;38650;44.536;18.664;2023-04-01T08:10:55;12.50;99.90
52765;DHT22;38650;44.536;18.664;2023-04-01T08:21:43;12.70;99.90
52765;DHT22;38650;44.536;18.664;2023-04-01T08:24:42;12.90;99.90
52765;DHT22;38650;44.536;18.664;2023-04-01T08:27:28;12.80;99.90
52765;DHT22;38650;44.536;18.664;2023-04-01T08:30:14;12.60;99.90
52765;DHT22;38650;44.536;18.664;2023-04-01T08:32:48;12.50;99.90
52765;DHT22;38650;44.536;18.664;2023-04-01T08:35:49;12.40;99.90
52765;DHT22;38650;44.536;18.664;2023-04-01T09:03:35;12.50;99.90
52765;DHT22;38650;44.536;18.664;2023-04-01T09:09:22;12.50;99.90
52765;DHT22;38650;44.536;18.664;2023-04-01T09:27:02;12.80;99.90
52765;DHT22;38650;44.536;18.664;2023-04-01T09:36:46;12.60;99.90
52765;DHT22;38650;44.536;18.664;2023-04-01T09:39:47;12.60;99.90
52765;DHT22;38650;44.536;18.664;2023-04-01T09:42:35;12.60;99.90
52765;DHT22;38650;44.536;18.664;2023-04-01T09:54:03;12.50;99.90
52765;DHT22;38650;44.536;18.664;2023-04-01T10:11:03;13.00;99.90
52765;DHT22;38650;44.536;18.664;2023-04-01T10:58:41;13.20;99.90
52765;DHT22;38650;44.536;18.664;2023-04-01T11:01:24;13.20;99.90
52765;DHT22;38650;44.536;18.664;2023-04-01T11:09:44;12.80;99.90
52765;DHT22;38650;44.536;18.664;2023-04-01T11:59:41;13.50;99.90
52765;DHT22;38650;44.536;18.664;2023-04-01T12:02:28;13.40;99.90
52765;DHT22;38650;44.536;18.664;2023-04-01T12:05:07;13.40;99.90
52765;DHT22;38650;44.536;18.664;2023-04-01T12:10:33;13.20;99.90
52765;DHT22;38650;44.536;18.664;2023-04-01T12:22:13;13.10;99.90
52765;DHT22;38650;44.536;18.664;2023-04-01T12:25:14;13.10;99.90
52765;DHT22;38650;44.536;18.664;2023-04-01T12:42:10;13.20;99.90
52765;DHT22;38650;44.536;18.664;2023-04-01T12:45:02;13.00;99.90
52765;DHT22;38650;44.536;18.664;2023-04-01T12:50:25;13.10;99.90
52765;DHT22;38650;44.536;18.664;2023-04-01T12:55:45;13.30;99.90
52765;DHT22;38650;44.536;18.664;2023-04-01T13:23:14;13.60;99.90
52765;DHT22;38650;44.536;18.664;2023-04-01T13:25:54;14.20;99.90
52765;DHT22;38650;44.536;18.664;2023-04-01T13:28:38;14.60;99.90
52765;DHT22;38650;44.536;18.664;2023-04-01T13:31:29;14.80;99.90
52765;DHT22;38650;44.536;18.664;2023-04-01T13:34:21;14.80;99.90
52765;DHT22;38650;44.536;18.664;2023-04-01T13:42:31;14.70;99.90
52765;DHT22;38650;44.536;18.664;2023-04-01T13:45:03;14.80;99.90
52765;DHT22;38650;44.536;18.664;2023-04-01T13:58:29;15.60;97.70
52765;DHT22;38650;44.536;18.664;2023-04-01T14:05:12;15.80;98.40
52765;DHT22;38650;44.536;18.664;2023-04-01T14:07:31;16.20;99.10
52765;DHT22;38650;44.536;18.664;2023-04-01T14:18:46;17.20;93.90
52765;DHT22;38650;44.536;18.664;2023-04-01T14:22:29;16.90;93.00
52765;DHT22;38650;44.536;18.664;2023-04-01T14:24:35;17.00;91.80
52765;DHT22;38650;44.536;18.664;2023-04-01T14:30:20;17.80;92.30
52765;DHT22;38650;44.536;18.664;2023-04-01T14:40:58;18.80;88.40
52765;DHT22;38650;44.536;18.664;2023-04-01T14:49:21;18.90;82.40
52765;DHT22;38650;44.536;18.664;2023-04-01T14:51:48;19.00;80.30
52765;DHT22;38650;44.536;18.664;2023-04-01T14:54:19;19.40;77.80
52765;DHT22;38650;44.536;18.664;2023-04-01T14:56:50;19.60;76.10
52765;DHT22;38650;44.536;18.664;2023-04-01T15:02:34;19.90;72.10
52765;DHT22;38650;44.536;18.664;2023-04-01T15:08:18;19.60;72.70
52765;DHT22;38650;44.536;18.664;2023-04-01T15:11:13;19.30;71.80
52765;DHT22;38650;44.536;18.664;2023-04-01T15:14:08;19.10;69.80
52765;DHT22;38650;44.536;18.664;2023-04-01T15:17:03;18.90;70.40
52765;DHT22;38650;44.536;18.664;2023-04-01T15:33:46;19.80;65.90
52765;DHT22;38650;44.536;18.664;2023-04-01T16:00:31;20.60;57.50
52765;DHT22;38650;44.536;18.664;2023-04-01T16:14:23;22.40;52.20
52765;DHT22;38650;44.536;18.664;2023-04-01T16:19:52;22.50;50.60
52765;DHT22;38650;44.536;18.664;2023-04-01T16:22:45;21.60;50.60
52765;DHT22;38650;44.536;18.664;2023-04-01T16:25:45;20.90;52.00
52765;DHT22;38650;44.536;18.664;2023-04-01T16:28:37;20.50;51.60
52765;DHT22;38650;44.536;18.664;2023-04-01T16:34:08;18.40;63.40
52765;DHT22;38650;44.536;18.664;2023-04-01T16:36:54;17.00;68.90
52765;DHT22;38650;44.536;18.664;2023-04-01T16:39:52;16.50;70.60
52765;DHT22;38650;44.536;18.664;2023-04-01T16:42:22;16.00;75.70
52765;DHT22;38650;44.536;18.664;2023-04-01T16:45:19;15.50;77.60
52765;DHT22;38650;44.536;18.664;2023-04-01T16:48:13;15.00;83.40
52765;DHT22;38650;44.536;18.664;2023-04-01T16:53:50;14.60;91.00
52765;DHT22;38650;44.536;18.664;2023-04-01T16:56:23;14.30;92.40
52765;DHT22;38650;44.536;18.664;2023-04-01T16:59:01;13.80;93.90
52765;DHT22;38650;44.536;18.664;2023-04-01T17:02:33;13.50;96.20
52765;DHT22;38650;44.536;18.664;2023-04-01T17:04:29;13.20;99.90
52765;DHT22;38650;44.536;18.664;2023-04-01T17:14:55;12.50;99.90
52765;DHT22;38650;44.536;18.664;2023-04-01T17:20:46;12.40;99.90
52765;DHT22;38650;44.536;18.664;2023-04-01T17:23:53;12.40;99.90
52765;DHT22;38650;44.536;18.664;2023-04-01T17:26:36;12.40;99.90
52765;DHT22;38650;44.536;18.664;2023-04-01T17:32:11;12.60;99.90
52765;DHT22;38650;44.536;18.664;2023-04-01T17:35:06;12.60;99.90
52765;DHT22;38650;44.536;18.664;2023-04-01T17:45:57;12.60;99.90
52765;DHT22;38650;44.536;18.664;2023-04-01T17:52:04;12.70;99.90
52765;DHT22;38650;44.536;18.664;2023-04-01T17:54:50;12.50;99.90
52765;DHT22;38650;44.536;18.664;2023-04-01T17:57:52;12.60;99.90
52765;DHT22;38650;44.536;18.664;2023-04-01T18:00:47;12.60;99.90
52765;DHT22;38650;44.536;18.664;2023-04-01T18:06:21;12.80;99.90
52765;DHT22;38650;44.536;18.664;2023-04-01T18:15:05;12.60;99.90
52765;DHT22;38650;44.536;18.664;2023-04-01T18:25:36;13.00;99.90
52765;DHT22;38650;44.536;18.664;2023-04-01T18:30:53;12.80;99.90
52765;DHT22;38650;44.536;18.664;2023-04-01T18:38:56;12.10;99.90
52765;DHT22;38650;44.536;18.664;2023-04-01T18:50:23;12.50;99.90
52765;DHT22;38650;44.536;18.664;2023-04-01T18:55:59;12.20;99.90
52765;DHT22;38650;44.536;18.664;2023-04-01T18:58:54;12.20;99.90
52765;DHT22;38650;44.536;18.664;2023-04-01T19:01:28;12.20;99.90
52765;DHT22;38650;44.536;18.664;2023-04-01T19:04:41;12.10;99.90
52765;DHT22;38650;44.536;18.664;2023-04-01T19:21:53;11.90;99.90
52765;DHT22;38650;44.536;18.664;2023-04-01T19:24:54;11.70;99.90
52765;DHT22;38650;44.536;18.664;2023-04-01T19:27:34;11.80;99.90
52765;DHT22;38650;44.536;18.664;2023-04-01T19:30:32;12.00;99.90
52765;DHT22;38650;44.536;18.664;2023-04-01T19:33:28;12.00;99.90
52765;DHT22;38650;44.536;18.664;2023-04-01T19:36:16;12.00;99.90
52765;DHT22;38650;44.536;18.664;2023-04-01T19:44:21;12.70;99.90
52765;DHT22;38650;44.536;18.664;2023-04-01T19:46:53;12.80;99.90
52765;DHT22;38650;44.536;18.664;2023-04-01T19:49:50;12.90;99.90
52765;DHT22;38650;44.536;18.664;2023-04-01T19:52:31;12.90;99.90
52765;DHT22;38650;44.536;18.664;2023-04-01T20:00:41;12.70;99.90
52765;DHT22;38650;44.536;18.664;2023-04-01T20:09:07;12.00;99.90
52765;DHT22;38650;44.536;18.664;2023-04-01T20:11:43;11.70;99.90
52765;DHT22;38650;44.536;18.664;2023-04-01T20:14:30;11.40;99.90
52765;DHT22;38650;44.536;18.664;2023-04-01T20:17:07;11.20;99.90
52765;DHT22;38650;44.536;18.664;2023-04-01T20:19:40;10.90;99.90
52765;DHT22;38650;44.536;18.664;2023-04-01T20:22:28;10.90;99.90
52765;DHT22;38650;44.536;18.664;2023-04-01T20:24:59;10.90;99.90
52765;DHT22;38650;44.536;18.664;2023-04-01T20:27:33;10.80;99.90
52765;DHT22;38650;44.536;18.664;2023-04-01T20:35:57;10.70;99.90
52765;DHT22;38650;44.536;18.664;2023-04-01T20:39:04;10.80;99.90
52765;DHT22;38650;44.536;18.664;2023-04-01T20:44:25;10.60;99.90
52765;DHT22;38650;44.536;18.664;2023-04-01T20:49:59;10.70;99.90
52765;DHT22;38650;44.536;18.664;2023-04-01T21:00:37;10.80;99.90
52765;DHT22;38650;44.536;18.664;2023-04-01T21:09:27;10.80;99.90
52765;DHT22;38650;44.536;18.664;2023-04-01T21:22:30;10.80;99.90
52765;DHT22;38650;44.536;18.664;2023-04-01T21:25:20;10.90;99.90
52765;DHT22;38650;44.536;18.664;2023-04-01T21:27:49;11.10;99.90
52765;DHT22;38650;44.536;18.664;2023-04-01T21:30:35;11.10;99.90
52765;DHT22;38650;44.536;18.664;2023-04-01T21:36:20;11.10;99.90
52765;DHT22;38650;44.536;18.664;2023-04-01T21:44:52;10.80;99.90
52765;DHT22;38650;44.536;18.664;2023-04-01T21:47:36;10.80;99.90
52765;DHT22;38650;44.536;18.664;2023-04-01T22:04:14;10.80;99.90
52765;DHT22;38650;44.536;18.664;2023-04-01T22:06:54;10.60;99.90
52765;DHT22;38650;44.536;18.664;2023-04-01T22:09:39;10.60;99.90
52765;DHT22;38650;44.536;18.664;2023-04-01T22:12:17;10.60;99.90
52765;DHT22;38650;44.536;18.664;2023-04-01T22:18:32;10.40;99.90
52765;DHT22;38650;44.536;18.664;2023-04-01T22:20:53;10.30;99.90
52765;DHT22;38650;44.536;18.664;2023-04-01T22:26:32;10.20;99.90
52765;DHT22;38650;44.536;18.664;2023-04-01T22:29:29;10.20;99.90
52765;DHT22;38650;44.536;18.664;2023-04-01T22:32:15;10.30;99.90
52765;DHT22;38650;44.536;18.664;2023-04-01T22:34:51;10.30;99.90
52765;DHT22;38650;44.536;18.664;2023-04-01T22:37:37;10.30;99.90
52765;DHT22;38650;44.536;18.664;2023-04-01T22:43:18;10.30;99.90
52765;DHT22;38650;44.536;18.664;2023-04-01T22:46:20;10.30;99.90
52765;DHT22;38650;44.536;18.664;2023-04-01T22:49:03;10.10;99.90
52765;DHT22;38650;44.536;18.664;2023-04-01T22:51:44;10.00;99.90
52765;DHT22;38650;44.536;18.664;2023-04-01T22:54:20;10.10;99.90
52765;DHT22;38650;44.536;18.664;2023-04-01T22:56:52;10.00;99.90
52765;DHT22;38650;44.536;18.664;2023-04-01T22:59:35;10.00;99.90
52765;DHT22;38650;44.536;18.664;2023-04-01T23:02:20;10.00;99.90
52765;DHT22;38650;44.536;18.664;2023-04-01T23:04:55;10.10;99.90
52765;DHT22;38650;44.536;18.664;2023-04-01T23:10:22;9.80;99.90
52765;DHT22;38650;44.536;18.664;2023-04-01T23:12:52;9.90;99.90
52765;DHT22;38650;44.536;18.664;2023-04-01T23:15:19;9.90;99.90
52765;DHT22;38650;44.536;18.664;2023-04-01T23:18:11;9.90;99.90
52765;DHT22;38650;44.536;18.664;2023-04-01T23:23:38;9.80;99.90
52765;DHT22;38650;44.536;18.664;2023-04-01T23:28:57;9.70;99.90
52765;DHT22;38650;44.536;18.664;2023-04-01T23:31:39;9.60;99.90
52765;DHT22;38650;44.536;18.664;2023-04-01T23:36:51;9.50;99.90
52765;DHT22;38650;44.536;18.664;2023-04-01T23:41:53;9.60;99.90
52765;DHT22;38650;44.536;18.664;2023-04-01T23:44:20;9.50;99.90
52765;DHT22;38650;44.536;18.664;2023-04-01T23:46:47;9.50;99.90
52765;DHT22;38650;44.536;18.664;2023-04-01T23:49:23;9.40;99.90
52765;DHT22;38650;44.536;18.664;2023-04-01T23:51:59;9.50;99.90
52765;DHT22;38650;44.536;18.664;2023-04-01T23:54:33;9.50;99.90
52765;DHT22;38650;44.536;18.664;2023-04-01T23:56:59;9.50;99.90
52765;DHT22;38650;44.536;18.664;2023-04-01T23:59:34;9.40;99.90
